createdAt,value
2018-06-22T00:01:04.709Z,77.00
2018-06-22T00:03:32.903Z,77.50
2018-06-22T00:06:01.141Z,77.50
2018-06-22T00:08:29.366Z,77.80
2018-06-22T00:10:57.837Z,78.20
2018-06-22T00:13:26.003Z,79.00
2018-06-22T00:15:54.274Z,78.90
2018-06-22T00:18:22.451Z,79.00
2018-06-22T00:20:50.663Z,78.70
2018-06-22T00:23:18.893Z,78.70
2018-06-22T00:25:47.165Z,78.60
2018-06-22T00:28:15.419Z,78.80
2018-06-22T00:30:43.673Z,78.80
2018-06-22T00:33:11.925Z,79.10
2018-06-22T00:35:40.172Z,79.10
2018-06-22T00:38:08.441Z,79.30
2018-06-22T00:40:36.709Z,79.40
2018-06-22T00:43:04.992Z,79.60
2018-06-22T00:45:33.199Z,79.80
2018-06-22T00:48:01.464Z,79.90
2018-06-22T00:50:29.652Z,80.20
2018-06-22T00:52:57.852Z,80.40
2018-06-22T00:57:54.237Z,80.80
2018-06-22T01:00:22.489Z,81.40
2018-06-22T01:02:50.738Z,81.50
2018-06-22T01:05:18.988Z,81.90
2018-06-22T01:07:47.223Z,82.20
2018-06-22T01:12:44.053Z,82.60
2018-06-22T01:15:12.230Z,82.60
2018-06-22T01:17:40.454Z,82.70
2018-06-22T01:20:08.704Z,82.10
2018-06-22T01:22:36.960Z,82.00
2018-06-22T01:25:05.241Z,82.10
2018-06-22T01:27:33.702Z,82.10
2018-06-22T01:30:01.880Z,82.30
2018-06-22T01:32:30.137Z,82.40
2018-06-22T01:34:58.408Z,82.50
2018-06-22T01:37:26.659Z,82.70
2018-06-22T01:39:54.918Z,82.90
2018-06-22T01:42:23.183Z,83.10
2018-06-22T01:44:51.433Z,83.20
2018-06-22T01:47:19.682Z,83.30
2018-06-22T01:49:47.881Z,83.50
2018-06-22T01:52:16.312Z,83.40
2018-06-22T01:54:44.604Z,83.60
2018-06-22T01:57:12.961Z,83.80
2018-06-22T01:59:41.276Z,84.00
2018-06-22T02:02:09.518Z,84.40
2018-06-22T02:04:37.769Z,84.70
2018-06-22T02:07:05.964Z,85.00
2018-06-22T02:09:34.130Z,85.40
2018-06-22T02:12:02.410Z,85.60
2018-06-22T02:14:30.655Z,85.90
2018-06-22T02:16:58.962Z,86.10
2018-06-22T02:19:27.154Z,86.40
2018-06-22T02:21:55.410Z,86.70
2018-06-22T02:24:23.674Z,86.80
2018-06-22T02:26:52.029Z,87.10
2018-06-22T02:29:20.320Z,87.60
2018-06-22T02:31:48.585Z,87.60
2018-06-22T02:34:16.783Z,87.90
2018-06-22T02:36:45.055Z,88.10
2018-06-22T02:39:13.656Z,88.30
2018-06-22T02:41:41.927Z,88.90
2018-06-22T02:44:10.129Z,88.80
2018-06-22T02:46:38.340Z,89.00
2018-06-22T02:49:06.557Z,89.40
2018-06-22T02:51:34.798Z,89.60
2018-06-22T02:54:03.073Z,89.90
2018-06-22T02:56:31.328Z,90.00
2018-06-22T02:58:59.586Z,90.20
2018-06-22T03:01:27.839Z,90.20
2018-06-22T03:03:56.065Z,90.30
2018-06-22T03:06:24.324Z,90.30
2018-06-22T03:08:52.618Z,90.20
2018-06-22T03:11:20.989Z,90.20
2018-06-22T03:13:49.241Z,90.20
2018-06-22T03:16:17.439Z,90.30
2018-06-22T03:18:45.639Z,90.30
2018-06-22T03:21:13.898Z,90.30
2018-06-22T03:26:10.440Z,90.50
2018-06-22T03:28:39.091Z,90.50
2018-06-22T03:31:08.097Z,90.60
2018-06-22T03:33:36.343Z,90.70
2018-06-22T03:36:04.741Z,90.70
2018-06-22T03:38:32.992Z,90.90
2018-06-22T03:41:01.248Z,90.80
2018-06-22T03:43:29.496Z,90.80
2018-06-22T03:45:57.693Z,90.70
2018-06-22T03:48:25.983Z,90.70
2018-06-22T03:50:54.239Z,90.70
2018-06-22T03:53:22.512Z,90.60
2018-06-22T03:55:50.767Z,90.60
2018-06-22T03:58:19.042Z,90.60
2018-06-22T04:00:47.277Z,90.70
2018-06-22T04:03:15.532Z,90.60
2018-06-22T04:05:43.797Z,90.60
2018-06-22T04:08:12.044Z,91.00
2018-06-22T04:10:40.218Z,90.60
2018-06-22T04:13:08.418Z,90.50
2018-06-22T04:15:36.684Z,90.30
2018-06-22T04:18:04.976Z,90.30
2018-06-22T04:20:33.183Z,90.50
2018-06-22T04:23:01.447Z,90.50
2018-06-22T04:25:29.705Z,90.40
2018-06-22T04:27:57.948Z,90.40
2018-06-22T04:30:26.134Z,90.30
2018-06-22T04:32:54.404Z,90.30
2018-06-22T04:35:22.616Z,90.10
2018-06-22T04:37:50.865Z,90.00
2018-06-22T04:40:19.111Z,89.90
2018-06-22T04:42:47.311Z,89.10
2018-06-22T04:45:15.515Z,88.70
2018-06-22T04:47:43.794Z,88.40
2018-06-22T04:50:12.027Z,87.90
2018-06-22T04:52:40.211Z,87.60
2018-06-22T04:55:08.420Z,87.80
2018-06-22T04:57:36.610Z,87.70
2018-06-22T05:00:04.918Z,87.00
2018-06-22T05:02:33.160Z,87.40
2018-06-22T05:05:01.390Z,87.40
2018-06-22T05:07:29.649Z,88.10
2018-06-22T05:09:57.854Z,87.10
2018-06-22T05:12:26.037Z,87.30
2018-06-22T05:14:54.235Z,87.40
2018-06-22T05:17:22.519Z,87.60
2018-06-22T05:19:50.755Z,87.50
2018-06-22T05:22:19.036Z,87.50
2018-06-22T05:24:47.296Z,87.10
2018-06-22T05:27:15.552Z,87.00
2018-06-22T05:29:43.808Z,87.00
2018-06-22T05:32:12.053Z,87.10
2018-06-22T05:34:40.293Z,87.20
2018-06-22T05:37:08.533Z,87.30
2018-06-22T05:39:36.719Z,87.20
2018-06-22T05:42:05.278Z,87.10
2018-06-22T05:44:33.511Z,86.50
2018-06-22T05:47:01.765Z,87.60
2018-06-22T05:49:29.946Z,86.30
2018-06-22T05:51:58.144Z,86.10
2018-06-22T05:54:26.582Z,86.00
2018-06-22T05:56:54.820Z,85.70
2018-06-22T05:59:23.023Z,85.60
2018-06-22T06:01:51.220Z,85.90
2018-06-22T06:04:19.477Z,85.40
2018-06-22T06:06:47.725Z,83.30
2018-06-22T06:09:15.923Z,83.40
2018-06-22T06:11:44.110Z,83.30
2018-06-22T06:14:12.346Z,83.20
2018-06-22T06:16:40.581Z,83.00
2018-06-22T06:19:08.837Z,82.50
2018-06-22T06:21:37.032Z,82.70
2018-06-22T06:24:05.233Z,82.60
2018-06-22T06:26:33.517Z,82.10
2018-06-22T06:29:01.765Z,82.70
2018-06-22T06:31:30.184Z,81.70
2018-06-22T06:36:26.779Z,81.70
2018-06-22T06:38:55.020Z,81.40
2018-06-22T06:41:23.310Z,80.50
2018-06-22T06:46:19.485Z,81.20
2018-06-22T06:48:47.730Z,80.50
2018-06-22T06:51:16.123Z,79.50
2018-06-22T06:53:44.316Z,77.70
2018-06-22T06:56:12.499Z,77.00
2018-06-22T06:58:40.752Z,77.00
2018-06-22T07:01:08.959Z,76.60
2018-06-22T07:03:37.170Z,76.10
2018-06-22T07:06:05.543Z,76.80
2018-06-22T07:08:33.852Z,74.80
2018-06-22T07:11:02.056Z,74.30
2018-06-22T07:13:30.248Z,74.40
2018-06-22T07:15:58.434Z,73.70
2018-06-22T07:20:54.697Z,72.60
2018-06-22T07:23:22.973Z,72.90
2018-06-22T07:25:51.171Z,72.30
2018-06-22T07:28:19.354Z,72.60
2018-06-22T07:30:47.586Z,73.30
2018-06-22T07:33:15.850Z,72.80
2018-06-22T07:35:44.045Z,73.50
2018-06-22T07:38:12.236Z,73.90
2018-06-22T07:40:40.423Z,73.50
2018-06-22T07:45:36.653Z,74.30
2018-06-22T07:48:05.036Z,73.90
2018-06-22T07:50:33.475Z,73.90
2018-06-22T07:53:01.734Z,74.30
2018-06-22T07:55:29.911Z,74.70
2018-06-22T07:57:58.137Z,74.80
2018-06-22T08:00:26.327Z,73.70
2018-06-22T08:05:22.492Z,74.40
2018-06-22T08:07:50.692Z,74.10
2018-06-22T08:12:46.876Z,74.20
2018-06-22T08:15:15.433Z,74.00
2018-06-22T08:17:43.734Z,72.90
2018-06-22T08:20:11.902Z,73.80
2018-06-22T08:25:08.134Z,73.40
2018-06-22T08:27:37.236Z,74.00
2018-06-22T08:30:05.780Z,74.40
2018-06-22T08:32:33.966Z,74.80
2018-06-22T08:35:02.243Z,74.50
2018-06-22T08:37:30.399Z,74.40
2018-06-22T08:39:58.596Z,74.10
2018-06-22T08:42:26.810Z,72.80
2018-06-22T08:44:55.020Z,72.40
2018-06-22T08:47:23.281Z,72.50
2018-06-22T08:49:51.479Z,72.20
2018-06-22T08:52:19.714Z,71.10
2018-06-22T08:54:47.935Z,71.30
2018-06-22T08:57:16.209Z,71.90
2018-06-22T08:59:44.404Z,71.50
2018-06-22T09:02:12.605Z,70.90
2018-06-22T09:04:40.841Z,71.00
2018-06-22T09:07:09.328Z,71.30
2018-06-22T09:09:37.512Z,70.80
2018-06-22T09:12:05.715Z,70.60
2018-06-22T09:14:33.946Z,70.80
2018-06-22T09:17:02.188Z,70.80
2018-06-22T09:19:30.493Z,70.70
2018-06-22T09:21:58.679Z,71.20
2018-06-22T09:24:26.934Z,71.00
2018-06-22T09:26:55.197Z,70.90
2018-06-22T09:29:23.630Z,70.50
2018-06-22T09:31:51.915Z,70.40
2018-06-22T09:34:20.177Z,70.90
2018-06-22T09:36:48.428Z,70.60
2018-06-22T09:41:44.585Z,71.90
2018-06-22T09:44:24.052Z,71.90
2018-06-22T09:46:52.247Z,71.80
2018-06-22T09:49:20.448Z,71.60
2018-06-22T09:54:16.767Z,71.50
2018-06-22T09:56:44.975Z,71.40
2018-06-22T09:59:13.234Z,72.10
2018-06-22T10:01:41.489Z,72.40
2018-06-22T10:04:09.731Z,72.60
2018-06-22T10:06:37.911Z,72.40
2018-06-22T10:09:08.823Z,72.00
2018-06-22T10:11:37.039Z,72.10
2018-06-22T10:14:05.642Z,72.60
2018-06-22T10:16:33.855Z,72.60
2018-06-22T10:19:02.098Z,72.70
2018-06-22T10:21:30.391Z,73.10
2018-06-22T10:23:58.932Z,72.50
2018-06-22T10:31:23.172Z,70.80
2018-06-22T10:33:51.391Z,69.50
2018-06-22T10:36:19.554Z,69.70
2018-06-22T10:38:47.937Z,70.10
2018-06-22T10:41:16.171Z,71.00
2018-06-22T10:43:44.368Z,71.00
2018-06-22T10:48:40.982Z,71.70
2018-06-22T10:51:09.252Z,71.40
2018-06-22T10:53:37.444Z,71.40
2018-06-22T10:56:05.836Z,72.10
2018-06-22T10:58:34.128Z,70.90
2018-06-22T11:01:02.314Z,70.40
2018-06-22T11:03:30.513Z,70.60
2018-06-22T11:05:58.715Z,70.80
2018-06-22T11:08:26.922Z,70.20
2018-06-22T11:10:55.152Z,70.20
2018-06-22T11:13:23.416Z,69.30
2018-06-22T11:15:51.603Z,69.60
2018-06-22T11:20:47.914Z,70.40
2018-06-22T11:23:16.126Z,70.60
2018-06-22T11:25:44.408Z,72.40
2018-06-22T11:28:12.645Z,71.50
2018-06-22T11:30:40.842Z,71.40
2018-06-22T11:33:09.099Z,70.50
2018-06-22T11:35:37.284Z,70.50
2018-06-22T11:38:05.471Z,71.30
2018-06-22T11:40:33.721Z,70.80
2018-06-22T11:43:02.082Z,70.80
2018-06-22T11:45:30.293Z,71.10
2018-06-22T11:47:58.481Z,71.70
2018-06-22T11:50:26.776Z,70.60
2018-06-22T11:52:55.023Z,67.90
2018-06-22T11:55:23.286Z,67.80
2018-06-22T12:00:19.487Z,66.40
2018-06-22T12:02:48.024Z,66.70
2018-06-22T12:05:16.190Z,66.40
2018-06-22T12:07:44.419Z,66.30
2018-06-22T12:10:12.661Z,65.30
2018-06-22T12:12:40.903Z,64.30
2018-06-22T12:15:09.099Z,63.10
2018-06-22T12:17:37.288Z,58.30
2018-06-22T12:20:05.490Z,56.10
2018-06-22T12:22:33.687Z,56.20
2018-06-22T12:25:01.963Z,55.70
2018-06-22T12:27:30.269Z,55.60
2018-06-22T12:29:59.307Z,56.70
2018-06-22T12:32:27.796Z,54.60
2018-06-22T12:34:56.046Z,53.80
2018-06-22T12:37:24.394Z,54.00
2018-06-22T12:39:52.616Z,53.20
2018-06-22T12:42:20.812Z,51.00
2018-06-22T12:44:49.010Z,49.90
2018-06-22T12:47:17.240Z,49.40
2018-06-22T12:52:13.535Z,51.30
2018-06-22T12:54:41.740Z,50.70
2018-06-22T12:57:10.227Z,50.60
2018-06-22T12:59:38.401Z,50.90
2018-06-22T13:02:06.799Z,50.80
2018-06-22T13:04:35.010Z,50.90
2018-06-22T13:07:03.336Z,51.10
2018-06-22T13:09:31.566Z,51.10
2018-06-22T13:11:59.783Z,50.20
2018-06-22T13:14:27.972Z,50.70
2018-06-22T13:16:56.252Z,51.20
2018-06-22T13:19:24.466Z,52.20
2018-06-22T13:21:53.811Z,52.30
2018-06-22T13:24:23.008Z,51.70
2018-06-22T13:26:51.223Z,50.90
2018-06-22T13:29:19.510Z,51.00
2018-06-22T13:31:47.696Z,50.30
2018-06-22T13:34:16.770Z,49.60
2018-06-22T13:36:45.948Z,50.30
2018-06-22T13:39:15.463Z,50.20
2018-06-22T13:41:44.084Z,49.90
2018-06-22T13:44:12.344Z,48.60
2018-06-22T13:46:41.386Z,49.00
2018-06-22T13:49:10.549Z,49.10
2018-06-22T13:51:38.899Z,50.30
2018-06-22T13:54:07.465Z,51.00
2018-06-22T13:56:36.078Z,51.20
2018-06-22T13:59:04.515Z,51.30
2018-06-22T14:01:33.658Z,52.20
2018-06-22T14:04:07.271Z,51.80
2018-06-22T14:06:40.921Z,52.30
2018-06-22T14:09:12.267Z,52.10
2018-06-22T14:11:40.849Z,53.00
2018-06-22T14:16:37.076Z,54.00
2018-06-22T14:21:34.385Z,53.30
2018-06-22T14:24:02.589Z,53.40
2018-06-22T14:26:30.845Z,54.10
2018-06-22T14:28:59.208Z,54.90
2018-06-22T14:33:55.381Z,55.30
2018-06-22T14:36:23.679Z,53.00
2018-06-22T14:38:51.911Z,53.00
2018-06-22T14:41:20.107Z,53.10
2018-06-22T14:43:48.299Z,53.20
2018-06-22T14:46:16.507Z,53.20
2018-06-22T14:48:44.984Z,52.90
2018-06-22T14:51:13.263Z,52.90
2018-06-22T14:53:46.751Z,53.40
2018-06-22T14:56:20.426Z,53.80
2018-06-22T14:58:53.964Z,54.00
2018-06-22T15:01:27.823Z,53.20
2018-06-22T15:06:04.829Z,53.80
2018-06-22T15:08:33.075Z,54.80
2018-06-22T15:11:01.252Z,52.80
2018-06-22T15:13:29.479Z,53.10
2018-06-22T15:15:59.540Z,53.10
2018-06-22T15:18:27.775Z,53.60
2018-06-22T15:23:24.144Z,54.10
2018-06-22T15:25:52.657Z,54.20
2018-06-22T15:28:20.956Z,54.40
2018-06-22T15:30:49.135Z,54.40
2018-06-22T15:33:22.830Z,54.70
2018-06-22T15:35:56.344Z,54.90
2018-06-22T15:38:29.986Z,53.70
2018-06-22T15:41:03.574Z,53.90
2018-06-22T15:43:37.150Z,54.00
2018-06-22T15:46:10.789Z,53.60
2018-06-22T15:48:48.300Z,54.10
2018-06-22T15:51:21.888Z,53.70
2018-06-22T15:53:55.365Z,53.40
2018-06-22T15:56:24.189Z,53.00
2018-06-22T15:58:52.653Z,53.30
2018-06-22T16:01:22.351Z,53.30
2018-06-22T16:03:56.863Z,53.00
2018-06-22T16:06:25.764Z,52.80
2018-06-22T16:08:54.015Z,52.60
2018-06-22T16:11:26.789Z,52.70
2018-06-22T16:14:00.779Z,53.00
2018-06-22T16:16:34.409Z,53.90
2018-06-22T16:19:08.060Z,54.60
2018-06-22T16:21:41.655Z,55.50
2018-06-22T16:26:48.697Z,55.90
2018-06-22T16:29:16.875Z,55.70
2018-06-22T16:31:45.209Z,56.20
2018-06-22T16:34:13.487Z,55.80
2018-06-22T16:36:41.739Z,55.70
2018-06-22T16:39:12.677Z,55.80
2018-06-22T16:41:40.924Z,55.90
2018-06-22T16:44:09.823Z,56.30
2018-06-22T16:46:38.081Z,57.00
2018-06-22T16:49:06.372Z,57.20
2018-06-22T16:51:34.752Z,57.60
2018-06-22T16:54:02.947Z,57.60
2018-06-22T16:56:31.210Z,57.20
2018-06-22T16:59:01.638Z,57.10
2018-06-22T17:01:29.964Z,57.40
2018-06-22T17:03:58.159Z,57.10
2018-06-22T17:06:26.618Z,57.20
2018-06-22T17:09:00.231Z,57.90
2018-06-22T17:11:33.799Z,57.80
2018-06-22T17:14:07.430Z,56.80
2018-06-22T17:16:41.049Z,56.70
2018-06-22T17:19:09.318Z,56.00
2018-06-22T17:21:37.502Z,56.00
2018-06-22T17:24:05.707Z,56.10
2018-06-22T17:26:33.959Z,56.40
2018-06-22T17:29:02.213Z,57.30
2018-06-22T17:31:30.421Z,57.50
2018-06-22T17:33:58.616Z,57.20
2018-06-22T17:36:26.818Z,57.10
2018-06-22T17:38:55.065Z,57.30
2018-06-22T17:41:23.683Z,57.70
2018-06-22T17:43:51.892Z,57.30
2018-06-22T17:46:20.432Z,57.40
2018-06-22T17:48:48.746Z,57.10
2018-06-22T17:51:16.997Z,57.40
2018-06-22T17:53:45.214Z,57.80
2018-06-22T17:56:17.664Z,58.10
2018-06-22T17:58:50.169Z,58.60
2018-06-22T18:01:23.852Z,58.90
2018-06-22T18:03:57.507Z,59.00
2018-06-22T18:06:31.148Z,59.10
2018-06-22T18:08:59.413Z,59.10
2018-06-22T18:11:32.926Z,59.10
2018-06-22T18:14:01.141Z,59.40
2018-06-22T18:16:29.395Z,59.60
2018-06-22T18:18:57.660Z,59.80
2018-06-22T18:21:25.913Z,60.00
2018-06-22T18:23:54.178Z,59.80
2018-06-22T18:26:22.310Z,60.00
2018-06-22T18:28:50.565Z,59.80
2018-06-22T18:31:18.763Z,60.00
2018-06-22T18:33:46.979Z,60.20
2018-06-22T18:36:15.238Z,60.60
2018-06-22T18:38:43.489Z,61.10
2018-06-22T18:41:11.704Z,61.40
2018-06-22T18:43:45.412Z,61.60
2018-06-22T18:46:13.591Z,61.90
2018-06-22T18:48:41.865Z,62.30
2018-06-22T18:51:10.124Z,62.60
2018-06-22T18:53:43.857Z,62.30
2018-06-22T18:56:17.488Z,62.90
2018-06-22T18:58:51.127Z,63.20
2018-06-22T19:01:24.779Z,63.50
2018-06-22T19:03:53.659Z,62.90
2018-06-22T19:06:21.902Z,63.50
2018-06-22T19:08:50.183Z,64.10
2018-06-22T19:11:18.491Z,64.70
2018-06-22T19:13:46.732Z,64.80
2018-06-22T19:16:14.986Z,65.30
2018-06-22T19:18:43.266Z,65.60
2018-06-22T19:21:11.452Z,66.00
2018-06-22T19:23:40.228Z,66.60
2018-06-22T19:26:08.740Z,66.90
2018-06-22T19:28:36.927Z,67.20
2018-06-22T19:33:33.199Z,68.20
2018-06-22T19:36:01.399Z,68.60
2018-06-22T19:38:29.695Z,69.10
2018-06-22T19:40:57.907Z,70.20
2018-06-22T19:43:31.461Z,69.70
2018-06-22T19:46:05.095Z,70.00
2018-06-22T19:48:38.743Z,70.10
2018-06-22T19:53:54.212Z,70.60
2018-06-22T19:56:23.635Z,70.60
2018-06-22T19:58:51.815Z,71.10
2018-06-22T20:01:20.078Z,71.20
2018-06-22T20:03:48.339Z,71.60
2018-06-22T20:06:16.512Z,71.80
2018-06-22T20:08:44.773Z,72.10
2018-06-22T20:11:12.983Z,72.60
2018-06-22T20:13:42.857Z,73.00
2018-06-22T20:16:11.110Z,73.20
2018-06-22T20:18:39.416Z,73.60
2018-06-22T20:21:08.609Z,73.90
2018-06-22T20:23:36.880Z,74.30
2018-06-22T20:26:05.146Z,74.60
2018-06-22T20:28:33.437Z,75.00
2018-06-22T20:31:01.621Z,75.40
2018-06-22T20:33:29.830Z,76.50
2018-06-22T20:36:03.461Z,76.10
2018-06-22T20:38:37.109Z,76.50
2018-06-22T20:41:10.631Z,76.80
2018-06-22T20:43:44.333Z,77.00
2018-06-22T20:46:12.651Z,77.50
2018-06-22T20:48:46.187Z,77.70
2018-06-22T20:51:14.371Z,78.10
2018-06-22T20:53:42.593Z,78.50
2018-06-22T20:56:10.887Z,78.90
2018-06-22T20:58:39.095Z,79.30
2018-06-22T21:01:07.312Z,79.70
2018-06-22T21:03:35.532Z,80.00
2018-06-22T21:06:03.787Z,80.60
2018-06-22T21:08:32.016Z,80.90
2018-06-22T21:11:00.205Z,81.40
2018-06-22T21:13:28.488Z,81.50
2018-06-22T21:15:56.745Z,81.80
2018-06-22T21:18:25.040Z,82.10
2018-06-22T21:23:01.012Z,82.50
2018-06-22T21:25:29.188Z,82.60
2018-06-22T21:28:02.702Z,82.90
2018-06-22T21:30:36.282Z,83.20
2018-06-22T21:33:09.835Z,83.40
2018-06-22T21:37:49.854Z,83.60
2018-06-22T21:40:18.146Z,83.60
2018-06-22T21:42:46.707Z,83.90
2018-06-22T21:45:14.901Z,84.10
2018-06-22T21:47:43.257Z,84.30
2018-06-22T21:52:39.598Z,84.40
2018-06-22T21:55:07.813Z,84.30
2018-06-22T21:57:36.034Z,84.30
2018-06-22T22:00:06.313Z,84.60
2018-06-22T22:02:34.592Z,84.80
2018-06-22T22:05:02.845Z,84.90
2018-06-22T22:07:31.121Z,85.10
2018-06-22T22:09:59.339Z,85.00
2018-06-22T22:12:27.609Z,85.00
2018-06-22T22:14:55.869Z,85.30
2018-06-22T22:17:24.073Z,85.50
2018-06-22T22:19:52.334Z,85.70
2018-06-22T22:22:20.586Z,85.70
2018-06-22T22:24:48.791Z,85.80
2018-06-22T22:27:17.073Z,86.20
2018-06-22T22:29:45.291Z,86.20
2018-06-22T22:32:13.533Z,86.40
2018-06-22T22:34:41.808Z,86.40
2018-06-22T22:37:10.276Z,86.80
2018-06-22T22:39:38.492Z,86.90
2018-06-22T22:42:06.782Z,87.00
2018-06-22T22:44:35.061Z,87.40
2018-06-22T22:47:03.376Z,87.60
2018-06-22T22:49:31.627Z,88.00
2018-06-22T22:51:59.819Z,88.40
2018-06-22T22:54:28.058Z,88.50
2018-06-22T22:56:56.420Z,88.40
2018-06-22T22:59:24.671Z,89.00
2018-06-22T23:01:52.912Z,89.20
2018-06-22T23:04:21.225Z,89.50
2018-06-22T23:06:49.467Z,89.60
2018-06-22T23:09:17.716Z,89.90
2018-06-22T23:11:45.916Z,90.00
2018-06-22T23:14:14.090Z,90.00
2018-06-22T23:16:42.346Z,90.10
2018-06-22T23:19:10.598Z,90.10
2018-06-22T23:21:38.795Z,90.10
2018-06-22T23:24:07.003Z,90.20
2018-06-22T23:26:35.210Z,90.30
2018-06-22T23:29:03.581Z,90.40
2018-06-22T23:31:31.802Z,90.40
2018-06-22T23:33:59.995Z,90.40
2018-06-22T23:36:28.183Z,90.50
2018-06-22T23:38:56.418Z,90.60
2018-06-22T23:43:52.579Z,90.80
2018-06-22T23:46:20.843Z,90.90
2018-06-22T23:48:49.062Z,91.00
2018-06-22T23:51:17.256Z,91.10
2018-06-22T23:53:45.443Z,91.10
2018-06-22T23:56:13.684Z,91.30
2018-06-22T23:58:41.937Z,91.40
